Time;durP1;ratioP1;P1;durP2;ratioP2;P2;SDS_P1;SDS_P2;PMS_P1;PMS_P2;Temp;Humidity;BMP_temperature;BMP_pressure;BME280_temperature;BME280_humidity;BME280_pressure;Samples;Min_cycle;Max_cycle;Signal;HPM_P1;HPM_P2
2021/06/26 00:07:35;;;;;;;23.90;17.85;;;18.50;99.90;;;;;;5072084;28;20220;-78
2021/06/26 00:20:50;;;;;;;20.75;18.85;;;18.30;99.90;;;;;;5078304;28;20205;-80
2021/06/26 00:23:17;;;;;;;28.27;25.90;;;18.20;99.90;;;;;;5073965;28;20204;-79
2021/06/26 00:25:44;;;;;;;24.95;22.40;;;18.20;99.90;;;;;;5074347;28;20201;-80
2021/06/26 00:36:29;;;;;;;47.67;44.08;;;18.00;99.90;;;;;;5073604;28;20212;-79
2021/06/26 00:38:56;;;;;;;23.55;21.40;;;18.00;99.90;;;;;;5075878;28;20625;-79
2021/06/26 00:41:23;;;;;;;19.05;17.02;;;17.90;99.90;;;;;;5073769;28;20197;-79
2021/06/26 00:43:50;;;;;;;27.08;22.08;;;17.80;99.90;;;;;;5072664;28;20235;-79
2021/06/26 00:51:48;;;;;;;23.95;21.85;;;17.80;99.90;;;;;;5082412;28;20201;-80
2021/06/26 01:04:59;;;;;;;55.88;51.88;;;17.60;99.90;;;;;;5073450;28;20212;-80
2021/06/26 01:15:37;;;;;;;71.05;66.18;;;17.60;99.90;;;;;;5072843;28;20287;-79
2021/06/26 01:23:32;;;;;;;76.25;71.70;;;17.40;99.90;;;;;;5076122;28;20231;-79
2021/06/26 01:25:59;;;;;;;70.60;66.07;;;17.40;99.90;;;;;;5075888;28;20659;-80
2021/06/26 01:28:26;;;;;;;63.15;59.10;;;17.30;99.90;;;;;;5079044;28;20217;-79
2021/06/26 01:30:52;;;;;;;76.07;71.40;;;17.30;99.90;;;;;;5073329;28;20201;-80
2021/06/26 01:33:19;;;;;;;87.68;82.32;;;17.30;99.90;;;;;;5072063;28;20209;-79
2021/06/26 01:46:32;;;;;;;128.65;121.55;;;17.10;99.90;;;;;;5085731;28;20200;-79
2021/06/26 01:51:48;;;;;;;58.13;54.40;;;17.10;99.90;;;;;;5070026;28;20209;-80
2021/06/26 01:54:15;;;;;;;84.80;79.80;;;17.10;99.90;;;;;;5080689;28;20208;-79
2021/06/26 01:56:43;;;;;;;98.18;92.38;;;17.00;99.90;;;;;;5074112;28;20209;-79
2021/06/26 02:12:36;;;;;;;178.60;168.95;;;17.00;99.90;;;;;;5078103;28;20209;-79
2021/06/26 02:15:03;;;;;;;184.07;172.68;;;16.90;99.90;;;;;;5071661;28;20193;-79
2021/06/26 02:17:30;;;;;;;196.48;185.15;;;16.90;99.90;;;;;;5071681;28;20236;-79
2021/06/26 02:19:57;;;;;;;126.45;119.43;;;16.90;99.90;;;;;;5072907;28;20648;-79
2021/06/26 02:22:24;;;;;;;160.25;151.80;;;17.00;99.90;;;;;;5079016;28;20198;-79
2021/06/26 02:24:51;;;;;;;118.28;111.82;;;17.00;99.90;;;;;;5076498;28;20232;-78
2021/06/26 02:27:18;;;;;;;132.13;124.90;;;17.00;99.90;;;;;;5077782;28;20228;-78
2021/06/26 02:29:46;;;;;;;105.63;99.47;;;17.00;99.90;;;;;;5074632;28;20239;-77
2021/06/26 02:32:13;;;;;;;94.15;88.45;;;17.00;99.90;;;;;;5079171;28;20239;-77
2021/06/26 02:34:40;;;;;;;136.02;128.20;;;17.00;99.90;;;;;;5075043;28;20212;-80
2021/06/26 02:37:07;;;;;;;227.05;213.60;;;17.00;99.90;;;;;;5071225;28;20197;-79
2021/06/26 02:39:34;;;;;;;144.88;137.23;;;16.90;99.90;;;;;;5071224;28;20223;-79
2021/06/26 02:42:01;;;;;;;308.10;289.90;;;16.90;99.90;;;;;;5071463;28;20251;-79
2021/06/26 02:44:28;;;;;;;203.15;191.60;;;16.80;99.90;;;;;;5079328;28;20231;-79
2021/06/26 02:49:37;;;;;;;205.48;193.75;;;16.90;99.90;;;;;;5078651;28;20201;-79
2021/06/26 02:52:06;;;;;;;163.00;153.90;;;16.90;99.90;;;;;;5077632;28;20300;-79
2021/06/26 02:54:33;;;;;;;144.82;136.75;;;16.90;99.90;;;;;;5081886;28;20189;-79
2021/06/26 02:57:00;;;;;;;136.75;128.68;;;16.80;99.90;;;;;;5075390;28;20205;-78
2021/06/26 02:59:29;;;;;;;158.18;149.30;;;16.80;99.90;;;;;;5075319;28;20208;-78
2021/06/26 03:01:58;;;;;;;140.05;132.23;;;16.80;99.90;;;;;;5075004;28;20224;-78
2021/06/26 03:04:25;;;;;;;161.77;152.55;;;16.90;99.90;;;;;;5080658;28;20236;-78
2021/06/26 03:06:52;;;;;;;202.90;191.38;;;16.90;99.90;;;;;;5079163;28;20494;-78
2021/06/26 03:09:19;;;;;;;198.35;187.00;;;16.90;99.90;;;;;;5074147;28;20201;-78
2021/06/26 03:11:46;;;;;;;360.40;337.52;;;16.90;99.90;;;;;;5077192;28;20205;-78
2021/06/26 03:14:13;;;;;;;265.50;249.93;;;16.80;99.90;;;;;;5082721;28;20468;-78
2021/06/26 03:19:22;;;;;;;315.38;296.08;;;16.80;99.90;;;;;;5075106;28;20235;-79
2021/06/26 03:21:50;;;;;;;370.83;347.60;;;16.80;99.90;;;;;;5074526;28;20216;-79
2021/06/26 03:24:17;;;;;;;369.58;346.02;;;16.80;99.90;;;;;;5079198;28;20208;-79
2021/06/26 03:26:52;;;;;;;363.98;341.15;;;16.80;99.90;;;;;;5075379;28;20770;-79
2021/06/26 03:29:19;;;;;;;221.25;208.70;;;16.70;99.90;;;;;;5084378;28;20211;-78
2021/06/26 03:31:45;;;;;;;162.23;152.95;;;16.60;99.90;;;;;;5082319;28;20205;-79
2021/06/26 03:37:02;;;;;;;164.18;155.00;;;16.60;99.90;;;;;;5082046;28;20658;-79
2021/06/26 03:39:29;;;;;;;162.27;153.23;;;16.70;99.90;;;;;;5080103;28;20201;-79
2021/06/26 03:41:56;;;;;;;158.52;149.77;;;16.70;99.90;;;;;;5073926;28;20202;-78
2021/06/26 03:44:24;;;;;;;150.82;142.45;;;16.80;99.90;;;;;;5086605;28;20226;-79
2021/06/26 03:46:50;;;;;;;166.10;157.13;;;16.70;99.90;;;;;;5078804;28;20724;-79
2021/06/26 03:52:04;;;;;;;146.70;138.45;;;16.80;99.90;;;;;;5075264;28;20231;-79
2021/06/26 03:57:13;;;;;;;177.77;167.50;;;16.80;99.90;;;;;;5074556;28;20272;-79
2021/06/26 03:59:40;;;;;;;177.73;167.35;;;16.80;99.90;;;;;;5074663;28;20558;-79
2021/06/26 04:02:15;;;;;;;184.13;173.80;;;16.80;99.90;;;;;;5075969;28;20201;-79
2021/06/26 04:04:42;;;;;;;171.85;162.30;;;16.80;99.90;;;;;;5085937;28;20224;-79
2021/06/26 04:07:10;;;;;;;259.30;244.20;;;16.90;99.90;;;;;;5088769;28;20200;-78
2021/06/26 04:12:22;;;;;;;173.73;163.63;;;16.90;99.90;;;;;;5078323;28;20209;-80
2021/06/26 04:14:49;;;;;;;171.60;161.85;;;16.90;99.90;;;;;;5074199;28;20205;-79
2021/06/26 04:17:15;;;;;;;149.85;141.27;;;17.00;99.90;;;;;;5073456;28;20692;-80
2021/06/26 04:22:43;;;;;;;178.13;167.43;;;17.00;99.90;;;;;;5079968;28;20263;-79
2021/06/26 04:25:11;;;;;;;158.48;149.25;;;17.10;99.90;;;;;;5076783;28;20197;-79
2021/06/26 04:27:39;;;;;;;136.32;128.50;;;17.10;99.90;;;;;;5072522;28;20224;-78
2021/06/26 04:30:07;;;;;;;156.60;147.13;;;17.00;99.90;;;;;;5078795;28;20197;-79
2021/06/26 04:32:36;;;;;;;222.82;209.38;;;17.10;99.90;;;;;;5071355;28;20235;-78
2021/06/26 04:35:06;;;;;;;184.88;173.63;;;17.00;99.90;;;;;;5082517;28;20201;-78
2021/06/26 04:37:33;;;;;;;181.85;171.30;;;17.10;99.90;;;;;;5071329;28;20213;-78
2021/06/26 04:40:06;;;;;;;153.85;144.60;;;17.20;99.90;;;;;;5071352;28;20227;-79
2021/06/26 04:42:33;;;;;;;143.18;134.57;;;17.30;99.90;;;;;;5070883;28;20205;-79
2021/06/26 04:45:02;;;;;;;157.93;148.50;;;17.40;99.90;;;;;;5082849;28;20263;-78
2021/06/26 04:47:29;;;;;;;142.27;132.88;;;17.50;99.90;;;;;;5075290;28;20278;-79
2021/06/26 04:49:56;;;;;;;177.88;166.95;;;17.70;99.90;;;;;;5073092;28;20189;-79
2021/06/26 04:57:54;;;;;;;147.57;138.57;;;18.10;99.90;;;;;;5076287;28;20264;-79
2021/06/26 05:00:23;;;;;;;140.43;131.15;;;18.20;99.90;;;;;;5077496;28;20223;-79
2021/06/26 05:02:50;;;;;;;164.85;153.90;;;18.30;99.90;;;;;;5076422;28;20208;-79
2021/06/26 05:07:59;;;;;;;142.50;133.65;;;18.40;99.90;;;;;;5080018;28;20623;-79
2021/06/26 05:10:27;;;;;;;157.63;147.43;;;18.40;99.90;;;;;;5072025;28;20197;-79
2021/06/26 05:12:54;;;;;;;148.13;138.95;;;18.40;99.90;;;;;;5072132;28;20201;-78
2021/06/26 05:15:22;;;;;;;143.63;134.43;;;18.30;99.90;;;;;;5080240;28;20208;-79
2021/06/26 05:17:48;;;;;;;133.82;125.28;;;18.40;99.90;;;;;;5080636;28;20240;-78
2021/06/26 05:20:19;;;;;;;153.77;144.50;;;18.40;99.90;;;;;;5079017;28;20197;-78
2021/06/26 05:22:46;;;;;;;142.02;133.52;;;18.40;99.90;;;;;;5078424;28;20204;-78
2021/06/26 05:25:13;;;;;;;155.10;145.57;;;18.50;99.90;;;;;;5079137;28;20197;-79
2021/06/26 05:27:42;;;;;;;150.48;141.13;;;18.50;99.90;;;;;;5078855;28;20220;-78
2021/06/26 05:30:12;;;;;;;154.20;144.13;;;18.50;99.90;;;;;;5073396;28;20300;-79
2021/06/26 05:32:39;;;;;;;153.43;143.70;;;18.50;99.90;;;;;;5080176;28;20222;-78
2021/06/26 05:35:08;;;;;;;147.20;138.38;;;18.50;99.90;;;;;;5076853;28;20205;-78
2021/06/26 05:37:35;;;;;;;112.85;105.35;;;18.60;99.90;;;;;;5072072;28;20197;-78
2021/06/26 05:40:02;;;;;;;152.27;142.90;;;18.60;99.90;;;;;;5075199;28;20190;-79
2021/06/26 05:42:28;;;;;;;131.60;123.57;;;18.70;99.90;;;;;;5077494;28;20226;-78
2021/06/26 05:45:05;;;;;;;150.13;140.40;;;18.70;99.90;;;;;;5084952;28;20274;-78
2021/06/26 05:47:32;;;;;;;144.73;136.10;;;18.80;99.90;;;;;;5071128;28;20209;-80
2021/06/26 05:49:59;;;;;;;130.30;122.20;;;18.90;99.90;;;;;;5071173;28;20223;-77
2021/06/26 05:52:34;;;;;;;130.85;122.30;;;18.90;99.90;;;;;;5081354;28;20219;-79
2021/06/26 05:55:00;;;;;;;126.93;118.53;;;19.00;99.90;;;;;;5071614;28;20238;-80
2021/06/26 05:57:27;;;;;;;56.25;51.22;;;19.10;99.90;;;;;;5075674;28;20478;-79
2021/06/26 05:59:54;;;;;;;119.93;112.07;;;19.10;99.90;;;;;;5077288;28;20231;-80
2021/06/26 06:02:23;;;;;;;125.28;117.45;;;19.20;99.90;;;;;;5072646;28;20209;-79
2021/06/26 06:04:50;;;;;;;109.38;102.53;;;19.30;99.90;;;;;;5080147;28;20242;-78
2021/06/26 06:07:19;;;;;;;127.20;119.00;;;19.50;99.90;;;;;;5071796;28;20264;-79
2021/06/26 06:09:47;;;;;;;104.82;97.57;;;19.60;99.90;;;;;;5071042;28;20225;-79
2021/06/26 06:12:14;;;;;;;131.73;123.32;;;19.70;99.90;;;;;;5071452;28;20217;-79
2021/06/26 06:14:41;;;;;;;117.85;109.90;;;19.80;99.90;;;;;;5078432;28;20227;-78
2021/06/26 06:17:09;;;;;;;114.03;106.40;;;19.90;99.90;;;;;;5080137;28;20264;-80
2021/06/26 06:19:37;;;;;;;114.38;106.63;;;20.00;99.90;;;;;;5079019;28;20189;-79
2021/06/26 06:22:08;;;;;;;126.95;118.70;;;20.30;99.90;;;;;;5074308;28;20208;-79
2021/06/26 06:24:35;;;;;;;131.27;122.85;;;20.60;99.90;;;;;;5073572;28;20197;-79
2021/06/26 06:27:02;;;;;;;101.60;94.13;;;20.90;99.90;;;;;;5086298;28;20247;-79
2021/06/26 06:29:29;;;;;;;116.82;108.95;;;21.30;99.90;;;;;;5074724;28;20229;-78
2021/06/26 06:31:56;;;;;;;97.10;90.38;;;21.50;99.90;;;;;;5075912;28;20201;-79
2021/06/26 06:34:23;;;;;;;93.53;86.90;;;21.70;99.90;;;;;;5081905;28;20228;-79
2021/06/26 06:36:51;;;;;;;149.73;139.82;;;21.90;99.90;;;;;;5076281;28;20209;-80
2021/06/26 06:39:20;;;;;;;105.18;97.30;;;22.00;99.90;;;;;;5082379;28;20201;-80
2021/06/26 06:41:48;;;;;;;68.68;63.25;;;22.30;99.90;;;;;;5075013;28;20242;-79
2021/06/26 06:44:15;;;;;;;86.68;79.72;;;22.60;99.90;;;;;;5078765;28;20213;-80
2021/06/26 06:46:42;;;;;;;73.85;67.90;;;22.80;99.90;;;;;;5077968;28;20586;-79
2021/06/26 06:49:09;;;;;;;62.67;57.30;;;23.00;99.90;;;;;;5076783;28;20251;-78
2021/06/26 06:51:38;;;;;;;45.40;40.25;;;23.20;99.90;;;;;;5072570;28;20481;-79
2021/06/26 06:54:07;;;;;;;53.17;47.75;;;23.40;99.90;;;;;;5073387;28;20201;-78
2021/06/26 06:56:34;;;;;;;67.97;62.35;;;23.60;99.90;;;;;;5072752;28;20270;-79
2021/06/26 06:59:01;;;;;;;59.15;53.97;;;23.70;99.90;;;;;;5073236;28;20292;-79
2021/06/26 07:01:28;;;;;;;70.18;64.30;;;24.00;99.90;;;;;;5079355;28;20200;-78
2021/06/26 07:03:57;;;;;;;58.67;53.17;;;24.20;99.90;;;;;;5073758;28;20205;-79
2021/06/26 07:06:24;;;;;;;38.78;34.65;;;24.40;99.90;;;;;;5075384;28;20220;-78
2021/06/26 07:08:56;;;;;;;52.95;48.10;;;24.50;99.90;;;;;;5077929;28;20224;-78
2021/06/26 07:11:27;;;;;;;52.80;48.05;;;24.50;99.90;;;;;;5073050;28;20205;-78
2021/06/26 07:13:54;;;;;;;43.80;39.45;;;24.70;99.90;;;;;;5081853;28;20193;-78
2021/06/26 07:16:24;;;;;;;48.83;44.58;;;24.60;99.90;;;;;;5074439;28;20236;-78
2021/06/26 07:18:51;;;;;;;56.42;51.70;;;24.60;99.90;;;;;;5082515;28;20614;-78
2021/06/26 07:21:18;;;;;;;44.85;40.70;;;24.60;99.90;;;;;;5081166;28;20201;-78
2021/06/26 07:23:45;;;;;;;32.33;29.17;;;24.80;99.90;;;;;;5077135;28;20208;-78
2021/06/26 07:26:12;;;;;;;26.00;23.38;;;25.00;99.90;;;;;;5072041;28;20209;-78
2021/06/26 07:28:41;;;;;;;33.65;30.17;;;25.10;99.90;;;;;;5071571;28;20240;-78
2021/06/26 07:31:08;;;;;;;33.75;30.08;;;25.20;99.90;;;;;;5070774;28;20226;-78
2021/06/26 07:36:17;;;;;;;36.63;33.10;;;25.30;99.90;;;;;;5071928;28;20538;-78
2021/06/26 07:38:54;;;;;;;29.33;26.25;;;25.30;99.90;;;;;;5073015;28;20201;-78
2021/06/26 07:41:22;;;;;;;29.65;17.40;;;25.30;99.90;;;;;;5078899;28;20612;-78
2021/06/26 07:43:51;;;;;;;26.08;16.73;;;25.40;99.90;;;;;;5074576;28;20778;-78
2021/06/26 07:46:18;;;;;;;25.05;15.43;;;25.50;99.90;;;;;;5083502;28;20227;-78
2021/06/26 07:48:46;;;;;;;24.65;14.88;;;25.60;99.90;;;;;;5072799;28;20240;-79
2021/06/26 07:53:54;;;;;;;22.42;14.68;;;25.70;99.90;;;;;;5072517;28;20208;-78
2021/06/26 07:56:21;;;;;;;22.75;13.52;;;25.70;99.90;;;;;;5077706;28;20225;-78
2021/06/26 07:58:51;;;;;;;20.02;14.23;;;25.70;99.90;;;;;;5080556;28;20205;-78
2021/06/26 08:01:18;;;;;;;19.23;13.85;;;25.70;99.90;;;;;;5076767;28;20250;-78
2021/06/26 08:03:45;;;;;;;17.77;13.50;;;25.70;99.90;;;;;;5076133;28;20231;-78
2021/06/26 08:06:16;;;;;;;23.58;13.23;;;25.60;99.90;;;;;;5073875;28;20227;-79
2021/06/26 08:08:43;;;;;;;20.42;12.23;;;25.60;99.90;;;;;;5072607;28;20282;-78
2021/06/26 08:11:17;;;;;;;17.75;12.27;;;25.60;99.90;;;;;;5072830;28;20197;-77
2021/06/26 08:13:44;;;;;;;16.30;12.90;;;25.70;99.90;;;;;;5071028;28;20213;-78
2021/06/26 08:16:29;;;;;;;17.17;12.25;;;25.70;99.90;;;;;;5078517;28;20205;-77
2021/06/26 08:18:56;;;;;;;15.98;13.48;;;25.70;99.90;;;;;;5077799;28;20197;-78
2021/06/26 08:21:23;;;;;;;19.65;14.60;;;25.50;99.90;;;;;;5070107;28;20213;-77
2021/06/26 08:26:36;;;;;;;17.63;15.88;;;25.50;99.90;;;;;;5072684;28;20209;-78
2021/06/26 08:29:03;;;;;;;29.23;27.00;;;25.40;99.90;;;;;;5067898;28;20289;-78
2021/06/26 08:31:32;;;;;;;27.55;25.42;;;25.20;99.90;;;;;;5070451;28;20220;-78
2021/06/26 08:33:59;;;;;;;32.17;29.33;;;25.00;99.90;;;;;;5070058;28;20201;-78
2021/06/26 08:36:25;;;;;;;30.73;28.55;;;25.10;99.90;;;;;;5070405;28;20248;-78
2021/06/26 08:38:56;;;;;;;29.73;27.23;;;25.10;99.90;;;;;;5074322;28;20208;-78
2021/06/26 08:41:25;;;;;;;49.42;45.78;;;25.20;99.90;;;;;;5070017;28;20616;-78
2021/06/26 08:43:53;;;;;;;20.85;19.15;;;25.30;99.90;;;;;;5068155;28;20486;-78
2021/06/26 08:46:22;;;;;;;29.73;26.98;;;25.30;99.90;;;;;;5072410;28;20216;-77
2021/06/26 08:48:51;;;;;;;27.45;25.52;;;25.50;99.90;;;;;;5072260;28;20224;-78
2021/06/26 08:51:20;;;;;;;25.45;22.88;;;25.80;99.90;;;;;;5073184;28;20201;-77
2021/06/26 08:53:46;;;;;;;22.63;20.75;;;26.10;99.90;;;;;;5072342;28;20205;-77
2021/06/26 08:56:14;;;;;;;16.63;15.20;;;26.20;99.90;;;;;;5069160;28;20235;-77
2021/06/26 08:58:41;;;;;;;22.50;20.45;;;26.20;99.90;;;;;;5069839;28;20209;-78
2021/06/26 09:01:09;;;;;;;18.17;16.40;;;26.50;99.90;;;;;;5073693;28;20240;-78
2021/06/26 09:03:37;;;;;;;13.32;12.05;;;27.00;99.90;;;;;;5081043;28;20592;-78
2021/06/26 09:06:07;;;;;;;14.10;12.27;;;27.40;99.90;;;;;;5069838;28;20201;-79
2021/06/26 09:08:34;;;;;;;16.08;14.38;;;27.60;99.90;;;;;;5075924;28;20684;-78
2021/06/26 09:11:01;;;;;;;15.90;14.40;;;27.90;99.90;;;;;;5069640;28;20193;-79
2021/06/26 09:13:33;;;;;;;10.95;9.85;;;28.10;99.90;;;;;;5070196;28;20204;-79
2021/06/26 09:16:07;;;;;;;16.42;11.70;;;28.30;99.90;;;;;;5069493;28;20209;-78
2021/06/26 09:18:42;;;;;;;32.13;29.70;;;28.60;99.90;;;;;;5070009;28;20200;-78
2021/06/26 09:24:23;;;;;;;12.75;10.50;;;28.50;99.90;;;;;;5036212;28;20220;-79
2021/06/26 09:26:57;;;;;;;12.85;11.68;;;28.60;99.90;;;;;;5082785;28;20200;-80
2021/06/26 09:34:48;;;;;;;15.15;11.07;;;28.80;99.90;;;;;;5069338;28;20264;-80
2021/06/26 09:37:19;;;;;;;12.23;11.23;;;28.60;99.90;;;;;;5073712;28;20193;-81
2021/06/26 09:39:47;;;;;;;33.35;31.25;;;28.70;99.90;;;;;;5070207;28;20205;-79
2021/06/26 09:42:20;;;;;;;37.40;35.20;;;28.80;99.90;;;;;;5070248;28;20212;-78
2021/06/26 09:47:41;;;;;;;16.80;15.40;;;29.00;99.90;;;;;;5077824;28;20265;-79
2021/06/26 09:50:13;;;;;;;13.10;10.07;;;29.30;99.90;;;;;;5070324;28;20770;-79
2021/06/26 09:52:47;;;;;;;12.45;11.27;;;29.50;99.90;;;;;;5071689;28;20224;-79
2021/06/26 09:55:18;;;;;;;14.77;11.25;;;29.60;99.90;;;;;;5074431;28;20212;-78
2021/06/26 09:57:46;;;;;;;16.95;13.07;;;29.80;99.90;;;;;;5070125;28;20919;-78
2021/06/26 10:00:16;;;;;;;14.68;13.38;;;29.90;99.90;;;;;;5073183;28;20239;-78
2021/06/26 10:05:06;;;;;;;14.70;13.15;;;30.00;98.50;;;;;;5086718;27;20567;-78
2021/06/26 10:07:34;;;;;;;18.10;16.45;;;30.00;99.90;;;;;;5082837;28;20258;-78
2021/06/26 10:10:02;;;;;;;14.57;13.10;;;30.00;99.90;;;;;;5084484;28;20238;-78
2021/06/26 10:12:41;;;;;;;13.23;11.98;;;30.00;99.90;;;;;;5092321;28;20200;-77
2021/06/26 10:15:10;;;;;;;13.73;12.35;;;30.20;99.70;;;;;;5094709;28;20210;-77
2021/06/26 10:17:39;;;;;;;13.48;11.88;;;30.20;99.20;;;;;;5083942;28;20200;-78
2021/06/26 10:20:10;;;;;;;16.20;14.57;;;30.20;98.60;;;;;;5092996;28;20205;-78
2021/06/26 10:22:42;;;;;;;14.85;13.43;;;30.20;99.00;;;;;;5089431;28;20220;-78
2021/06/26 10:25:19;;;;;;;14.30;11.98;;;30.00;98.40;;;;;;5071864;28;20223;-78
2021/06/26 10:28:04;;;;;;;14.45;13.20;;;30.00;98.90;;;;;;5092977;28;20208;-78
2021/06/26 10:30:50;;;;;;;13.98;12.88;;;29.90;96.80;;;;;;5084950;28;20200;-78
2021/06/26 10:33:27;;;;;;;15.85;14.23;;;29.70;99.70;;;;;;5088853;28;20268;-78
2021/06/26 10:35:57;;;;;;;14.13;12.93;;;29.60;99.60;;;;;;5085394;28;20212;-78
2021/06/26 10:38:24;;;;;;;15.52;14.32;;;29.80;97.80;;;;;;5085643;28;20234;-78
2021/06/26 10:40:53;;;;;;;12.27;11.15;;;29.70;98.90;;;;;;5099626;28;20211;-78
2021/06/26 10:43:25;;;;;;;16.38;12.40;;;29.60;98.70;;;;;;5088581;28;20452;-78
2021/06/26 10:51:32;;;;;;;15.63;14.50;;;29.30;96.40;;;;;;5088990;28;20295;-78
2021/06/26 11:00:38;;;;;;;21.92;20.50;;;28.80;97.70;;;;;;5049433;28;20197;-78
2021/06/26 11:03:14;;;;;;;18.73;17.40;;;28.90;97.30;;;;;;5045930;28;20666;-78
2021/06/26 11:08:38;;;;;;;25.40;23.60;;;28.90;97.00;;;;;;5094574;28;20196;-77
2021/06/26 11:13:47;;;;;;;22.27;20.60;;;28.90;96.80;;;;;;5091751;28;20231;-78
2021/06/26 11:16:14;;;;;;;24.55;22.65;;;28.80;97.10;;;;;;5072026;28;20217;-77
2021/06/26 11:18:41;;;;;;;48.50;45.70;;;28.70;97.20;;;;;;5082500;28;20663;-77
2021/06/26 11:32:22;;;;;;;49.97;46.72;;;28.00;96.20;;;;;;5041426;28;20221;-77
2021/06/26 11:34:57;;;;;;;29.50;27.35;;;27.80;96.30;;;;;;5068612;28;20200;-78
2021/06/26 11:37:34;;;;;;;26.17;24.30;;;27.70;97.10;;;;;;5073888;28;20208;-78
2021/06/26 11:40:04;;;;;;;27.98;26.13;;;27.70;98.00;;;;;;5075933;28;20272;-77
2021/06/26 11:42:31;;;;;;;27.42;25.65;;;27.50;96.70;;;;;;5067794;28;20358;-77
2021/06/26 11:44:59;;;;;;;22.17;20.52;;;27.40;95.40;;;;;;5068485;28;20225;-77
2021/06/26 11:47:31;;;;;;;32.50;30.25;;;27.30;97.00;;;;;;5083511;28;20212;-77
2021/06/26 11:49:59;;;;;;;39.65;37.08;;;27.20;96.50;;;;;;5081707;28;20205;-77
2021/06/26 11:52:56;;;;;;;29.13;27.35;;;27.10;97.50;;;;;;5071582;28;20263;-76
2021/06/26 11:55:41;;;;;;;32.30;30.13;;;27.10;96.50;;;;;;5067758;28;20209;-77
2021/06/26 11:58:12;;;;;;;28.08;26.33;;;27.00;95.90;;;;;;5076207;28;20201;-78
2021/06/26 12:06:08;;;;;;;70.93;67.05;;;26.70;98.50;;;;;;5072800;28;20208;-78
2021/06/26 12:08:42;;;;;;;60.55;56.88;;;26.70;98.30;;;;;;5069495;28;20255;-78
2021/06/26 12:11:13;;;;;;;47.03;44.28;;;26.80;98.30;;;;;;5068777;28;20791;-78
2021/06/26 12:13:42;;;;;;;28.83;26.77;;;26.80;98.10;;;;;;5069216;28;20232;-78
2021/06/26 12:18:59;;;;;;;35.63;33.47;;;26.80;99.10;;;;;;5075783;28;20207;-85
2021/06/26 12:27:06;;;;;;;34.05;32.00;;;26.60;98.30;;;;;;5067523;28;20200;-79
2021/06/26 12:29:33;;;;;;;37.45;35.15;;;26.70;99.40;;;;;;5075982;28;20201;-76
2021/06/26 12:37:34;;;;;;;28.20;26.40;;;26.90;99.20;;;;;;5072514;28;20201;-77
2021/06/26 12:40:08;;;;;;;27.63;25.92;;;27.00;98.90;;;;;;5076259;28;20201;-77
2021/06/26 12:42:52;;;;;;;23.65;22.08;;;27.00;99.10;;;;;;5069833;28;20196;-77
2021/06/26 12:45:25;;;;;;;24.58;22.98;;;26.90;98.60;;;;;;5068345;28;20247;-78
2021/06/26 12:48:05;;;;;;;30.85;28.88;;;26.80;98.60;;;;;;5068413;28;20209;-78
2021/06/26 12:50:35;;;;;;;28.17;26.10;;;26.80;98.10;;;;;;5079779;28;20210;-78
2021/06/26 13:01:36;;;;;;;50.50;47.30;;;26.60;99.80;;;;;;5069911;28;20216;-77
2021/06/26 13:04:05;;;;;;;39.97;37.00;;;26.60;99.90;;;;;;5080215;28;20405;-78
2021/06/26 13:06:32;;;;;;;40.35;38.00;;;26.50;99.40;;;;;;5073248;28;20208;-77
2021/06/26 13:11:42;;;;;;;39.42;37.10;;;26.60;99.30;;;;;;5066675;28;20578;-77
2021/06/26 13:24:57;;;;;;;41.42;38.97;;;26.80;99.50;;;;;;5065793;28;20228;-77
2021/06/26 13:27:24;;;;;;;39.63;36.78;;;26.80;98.70;;;;;;5066928;28;20227;-77
2021/06/26 13:29:53;;;;;;;36.20;33.50;;;26.90;98.40;;;;;;5071166;28;20256;-77
2021/06/26 13:32:21;;;;;;;141.45;133.75;;;26.90;98.10;;;;;;5069112;28;20291;-77
2021/06/26 13:34:48;;;;;;;168.95;159.88;;;26.90;97.90;;;;;;5066514;28;20205;-77
2021/06/26 13:37:22;;;;;;;184.52;174.48;;;26.90;98.00;;;;;;5066722;28;20201;-78
2021/06/26 13:42:30;;;;;;;169.35;160.40;;;26.90;97.70;;;;;;5075346;28;20604;-77
2021/06/26 13:45:13;;;;;;;194.50;184.00;;;26.90;97.60;;;;;;5066683;28;20232;-77
2021/06/26 13:47:40;;;;;;;186.85;176.73;;;26.80;98.00;;;;;;5067127;28;20201;-78
2021/06/26 13:50:10;;;;;;;181.60;171.88;;;26.80;97.20;;;;;;5070956;28;20204;-77
2021/06/26 13:52:37;;;;;;;198.73;188.00;;;26.60;98.00;;;;;;5073216;28;20234;-78
2021/06/26 14:00:28;;;;;;;149.70;141.73;;;26.80;99.00;;;;;;5069047;28;20232;-78
2021/06/26 14:02:55;;;;;;;161.05;152.30;;;26.80;97.60;;;;;;5066857;28;20271;-77
2021/06/26 14:05:22;;;;;;;188.57;178.18;;;26.60;98.30;;;;;;5079832;28;20250;-77
2021/06/26 14:07:49;;;;;;;150.95;142.95;;;26.70;96.70;;;;;;5072981;28;20334;-77
2021/06/26 14:10:16;;;;;;;182.23;172.32;;;26.60;96.80;;;;;;5069491;28;20220;-77
2021/06/26 14:12:43;;;;;;;174.15;164.55;;;26.60;97.90;;;;;;5070820;28;20231;-77
2021/06/26 14:15:11;;;;;;;186.70;176.80;;;26.60;96.30;;;;;;5066096;28;20667;-77
2021/06/26 14:17:44;;;;;;;178.32;168.90;;;26.50;96.00;;;;;;5066299;28;20235;-78
2021/06/26 14:20:12;;;;;;;215.02;202.82;;;26.60;96.70;;;;;;5066752;28;20258;-77
2021/06/26 14:22:38;;;;;;;238.80;225.18;;;26.60;95.70;;;;;;5077689;28;20679;-77
2021/06/26 14:33:19;;;;;;;221.25;208.82;;;26.70;97.30;;;;;;5072550;28;20200;-78
2021/06/26 14:38:35;;;;;;;208.88;197.05;;;26.80;96.20;;;;;;5067442;28;20201;-77
2021/06/26 14:41:04;;;;;;;215.35;203.38;;;26.80;96.40;;;;;;5072418;28;20296;-77
2021/06/26 14:43:30;;;;;;;192.40;182.00;;;26.90;96.40;;;;;;5067758;28;20204;-77
2021/06/26 14:45:58;;;;;;;211.48;199.98;;;26.90;96.50;;;;;;5070463;28;20201;-77
2021/06/26 14:48:26;;;;;;;197.20;186.63;;;26.90;95.70;;;;;;5067286;28;20231;-77
2021/06/26 14:50:53;;;;;;;179.38;169.98;;;26.90;96.00;;;;;;5070146;28;20197;-78
2021/06/26 14:53:20;;;;;;;214.25;202.43;;;26.70;96.50;;;;;;5074828;28;20230;-78
2021/06/26 14:55:52;;;;;;;182.18;172.50;;;26.70;96.60;;;;;;5071450;28;20227;-77
2021/06/26 14:58:19;;;;;;;187.13;176.75;;;26.60;96.90;;;;;;5075483;28;20271;-77
2021/06/26 15:00:47;;;;;;;201.95;190.35;;;26.60;97.00;;;;;;5071897;28;20232;-78
2021/06/26 15:03:14;;;;;;;205.98;194.35;;;26.50;96.30;;;;;;5070422;28;20290;-76
2021/06/26 15:05:42;;;;;;;196.43;186.02;;;26.60;96.30;;;;;;5075022;28;20229;-77
2021/06/26 15:08:09;;;;;;;197.85;187.02;;;26.50;95.70;;;;;;5070035;28;20205;-77
2021/06/26 15:10:36;;;;;;;193.05;182.48;;;26.40;96.80;;;;;;5072680;28;20255;-77
2021/06/26 15:13:03;;;;;;;199.20;188.38;;;26.50;96.60;;;;;;5069739;28;20243;-77
2021/06/26 15:15:30;;;;;;;282.98;266.30;;;26.50;96.40;;;;;;5070291;28;20205;-78
2021/06/26 15:17:58;;;;;;;165.93;157.38;;;26.70;97.30;;;;;;5074453;28;20200;-77
2021/06/26 15:20:27;;;;;;;213.75;202.23;;;26.80;96.30;;;;;;5076786;28;20712;-77
2021/06/26 15:22:56;;;;;;;195.98;185.35;;;27.00;96.20;;;;;;5070236;28;20201;-77
2021/06/26 15:25:23;;;;;;;272.95;256.75;;;27.10;96.00;;;;;;5076462;28;20233;-77
2021/06/26 15:27:50;;;;;;;202.30;191.35;;;27.20;96.80;;;;;;5070424;28;20205;-77
2021/06/26 15:30:18;;;;;;;219.25;207.30;;;27.10;96.60;;;;;;5078350;28;20197;-77
2021/06/26 15:32:45;;;;;;;231.50;218.85;;;27.00;95.80;;;;;;5069309;28;20256;-78
2021/06/26 15:35:12;;;;;;;199.38;188.57;;;26.90;96.10;;;;;;5074479;28;20197;-77
2021/06/26 15:37:39;;;;;;;213.10;201.10;;;26.70;96.50;;;;;;5073173;28;20239;-78
2021/06/26 15:40:08;;;;;;;185.07;175.15;;;26.70;97.30;;;;;;5073962;28;20200;-78
2021/06/26 15:42:36;;;;;;;146.38;138.77;;;26.70;97.20;;;;;;5075081;28;20193;-77
2021/06/26 15:45:05;;;;;;;142.00;134.77;;;26.70;96.50;;;;;;5074205;28;20229;-78
2021/06/26 15:47:32;;;;;;;197.98;187.38;;;26.60;96.20;;;;;;5069354;28;20270;-78
2021/06/26 15:49:59;;;;;;;205.48;194.32;;;26.60;96.40;;;;;;5075706;28;20251;-78
2021/06/26 15:52:26;;;;;;;210.57;199.18;;;26.50;95.20;;;;;;5069625;28;20205;-78
2021/06/26 15:54:53;;;;;;;202.65;191.75;;;26.50;95.40;;;;;;5068458;28;20224;-78
2021/06/26 15:57:22;;;;;;;280.40;263.95;;;26.70;95.60;;;;;;5070600;28;20228;-78
2021/06/26 15:59:52;;;;;;;298.15;280.27;;;27.00;95.70;;;;;;5075254;28;20267;-78
2021/06/26 16:02:19;;;;;;;270.88;255.10;;;27.00;94.90;;;;;;5074776;28;20197;-78
2021/06/26 16:04:47;;;;;;;243.60;229.82;;;27.10;95.20;;;;;;5072082;28;20266;-78
2021/06/26 16:07:15;;;;;;;201.20;190.27;;;27.20;95.20;;;;;;5070006;28;20209;-78